Terminal Aerodrome Forecast
Issued by NWS Charleston, WV

Current Version | Previous Version | Graphics & Text | Print | Product List | Glossary On
Versions: 1 2 3 4 5 6 7 8 9 10 11 12 13 14 15 16 17 18 19 20 21 22 23
000
FTUS41 KRLX 152113 AAC
TAFHTS
TAF AMD
KHTS 152113Z 1521/1618 19007KT P6SM BKN090
     FM152300 20008KT P6SM OVC040
     FM160500 24005KT 3SM -SN OVC025
     FM160800 26004KT 1SM -SN OVC008
     FM161100 27004KT 3SM -SN OVC015
     FM161500 27004KT 6SM -SN OVC035=

USA.gov is the U.S. government's official web portal to all federal, state and local government web resources and services.